sensor_id;sensor_type;location;lat;lon;timestamp;P1;durP1;ratioP1;P2;durP2;ratioP2
84577;SDS011;74803;44.756;19.218;2024-01-30T00:02:16;114.53;;;60.60;;
84577;SDS011;74803;44.756;19.218;2024-01-30T00:04:42;127.75;;;64.47;;
84577;SDS011;74803;44.756;19.218;2024-01-30T00:07:07;116.03;;;63.15;;
84577;SDS011;74803;44.756;19.218;2024-01-30T00:09:33;132.20;;;67.80;;
84577;SDS011;74803;44.756;19.218;2024-01-30T00:11:59;119.38;;;60.13;;
84577;SDS011;74803;44.756;19.218;2024-01-30T00:14:24;116.60;;;63.60;;
84577;SDS011;74803;44.756;19.218;2024-01-30T00:16:50;123.45;;;64.95;;
84577;SDS011;74803;44.756;19.218;2024-01-30T00:19:16;112.50;;;60.33;;
84577;SDS011;74803;44.756;19.218;2024-01-30T00:21:42;105.07;;;61.72;;
84577;SDS011;74803;44.756;19.218;2024-01-30T00:24:08;107.57;;;58.80;;
84577;SDS011;74803;44.756;19.218;2024-01-30T00:26:34;121.53;;;60.03;;
84577;SDS011;74803;44.756;19.218;2024-01-30T00:28:59;87.90;;;50.13;;
84577;SDS011;74803;44.756;19.218;2024-01-30T00:31:25;111.20;;;56.25;;
84577;SDS011;74803;44.756;19.218;2024-01-30T00:33:51;95.00;;;50.63;;
84577;SDS011;74803;44.756;19.218;2024-01-30T00:36:16;101.82;;;53.63;;
84577;SDS011;74803;44.756;19.218;2024-01-30T00:38:42;97.07;;;54.53;;
84577;SDS011;74803;44.756;19.218;2024-01-30T00:41:08;99.20;;;58.13;;
84577;SDS011;74803;44.756;19.218;2024-01-30T00:43:34;94.82;;;54.30;;
84577;SDS011;74803;44.756;19.218;2024-01-30T00:48:26;94.03;;;49.60;;
84577;SDS011;74803;44.756;19.218;2024-01-30T00:50:51;103.00;;;53.55;;
84577;SDS011;74803;44.756;19.218;2024-01-30T00:53:17;94.35;;;50.53;;
84577;SDS011;74803;44.756;19.218;2024-01-30T00:55:43;96.05;;;51.67;;
84577;SDS011;74803;44.756;19.218;2024-01-30T00:58:08;103.85;;;58.97;;
84577;SDS011;74803;44.756;19.218;2024-01-30T01:00:34;102.85;;;56.60;;
84577;SDS011;74803;44.756;19.218;2024-01-30T01:03:00;89.43;;;56.60;;
84577;SDS011;74803;44.756;19.218;2024-01-30T01:05:25;87.07;;;50.28;;
84577;SDS011;74803;44.756;19.218;2024-01-30T01:07:52;100.97;;;53.28;;
84577;SDS011;74803;44.756;19.218;2024-01-30T01:10:18;89.28;;;48.25;;
84577;SDS011;74803;44.756;19.218;2024-01-30T01:12:45;96.90;;;49.65;;
84577;SDS011;74803;44.756;19.218;2024-01-30T01:15:11;96.05;;;48.97;;
84577;SDS011;74803;44.756;19.218;2024-01-30T01:17:37;85.00;;;49.33;;
84577;SDS011;74803;44.756;19.218;2024-01-30T01:20:04;85.53;;;53.58;;
84577;SDS011;74803;44.756;19.218;2024-01-30T01:22:31;107.57;;;50.78;;
84577;SDS011;74803;44.756;19.218;2024-01-30T01:24:58;92.60;;;49.65;;
84577;SDS011;74803;44.756;19.218;2024-01-30T01:29:50;118.10;;;54.55;;
84577;SDS011;74803;44.756;19.218;2024-01-30T01:32:16;100.97;;;50.78;;
84577;SDS011;74803;44.756;19.218;2024-01-30T01:34:41;113.10;;;58.60;;
84577;SDS011;74803;44.756;19.218;2024-01-30T01:37:07;106.25;;;49.85;;
84577;SDS011;74803;44.756;19.218;2024-01-30T01:39:33;97.35;;;49.17;;
84577;SDS011;74803;44.756;19.218;2024-01-30T01:41:58;102.25;;;55.65;;
84577;SDS011;74803;44.756;19.218;2024-01-30T01:44:24;89.60;;;48.92;;
84577;SDS011;74803;44.756;19.218;2024-01-30T01:46:49;97.40;;;46.92;;
84577;SDS011;74803;44.756;19.218;2024-01-30T01:49:17;108.53;;;53.45;;
84577;SDS011;74803;44.756;19.218;2024-01-30T01:51:44;108.80;;;57.63;;
84577;SDS011;74803;44.756;19.218;2024-01-30T01:54:12;97.57;;;52.97;;
84577;SDS011;74803;44.756;19.218;2024-01-30T01:56:39;111.65;;;57.88;;
84577;SDS011;74803;44.756;19.218;2024-01-30T01:59:07;104.28;;;55.53;;
84577;SDS011;74803;44.756;19.218;2024-01-30T02:01:33;110.40;;;63.65;;
84577;SDS011;74803;44.756;19.218;2024-01-30T02:04:01;104.53;;;59.72;;
84577;SDS011;74803;44.756;19.218;2024-01-30T02:06:27;105.90;;;58.05;;
84577;SDS011;74803;44.756;19.218;2024-01-30T02:08:53;91.40;;;52.10;;
84577;SDS011;74803;44.756;19.218;2024-01-30T02:11:19;97.00;;;51.95;;
84577;SDS011;74803;44.756;19.218;2024-01-30T02:13:45;92.95;;;47.90;;
84577;SDS011;74803;44.756;19.218;2024-01-30T02:16:12;96.60;;;51.58;;
84577;SDS011;74803;44.756;19.218;2024-01-30T02:18:37;95.03;;;55.13;;
84577;SDS011;74803;44.756;19.218;2024-01-30T02:21:07;91.30;;;52.72;;
84577;SDS011;74803;44.756;19.218;2024-01-30T02:23:33;99.07;;;52.00;;
84577;SDS011;74803;44.756;19.218;2024-01-30T02:28:25;88.78;;;50.53;;
84577;SDS011;74803;44.756;19.218;2024-01-30T02:30:51;85.50;;;46.35;;
84577;SDS011;74803;44.756;19.218;2024-01-30T02:33:16;100.47;;;51.92;;
84577;SDS011;74803;44.756;19.218;2024-01-30T02:35:42;91.03;;;49.35;;
84577;SDS011;74803;44.756;19.218;2024-01-30T02:38:08;106.28;;;56.55;;
84577;SDS011;74803;44.756;19.218;2024-01-30T02:40:33;87.85;;;50.17;;
84577;SDS011;74803;44.756;19.218;2024-01-30T02:42:59;86.05;;;46.72;;
84577;SDS011;74803;44.756;19.218;2024-01-30T02:45:26;90.65;;;50.33;;
84577;SDS011;74803;44.756;19.218;2024-01-30T02:47:52;86.22;;;49.28;;
84577;SDS011;74803;44.756;19.218;2024-01-30T02:50:17;74.75;;;42.28;;
84577;SDS011;74803;44.756;19.218;2024-01-30T02:52:43;70.15;;;40.17;;
84577;SDS011;74803;44.756;19.218;2024-01-30T02:55:09;76.57;;;38.65;;
84577;SDS011;74803;44.756;19.218;2024-01-30T02:57:35;68.15;;;42.10;;
84577;SDS011;74803;44.756;19.218;2024-01-30T03:00:01;72.93;;;42.25;;
84577;SDS011;74803;44.756;19.218;2024-01-30T03:02:28;71.57;;;41.13;;
84577;SDS011;74803;44.756;19.218;2024-01-30T03:04:54;73.82;;;41.10;;
84577;SDS011;74803;44.756;19.218;2024-01-30T03:07:20;61.80;;;39.40;;
84577;SDS011;74803;44.756;19.218;2024-01-30T03:09:48;71.47;;;39.92;;
84577;SDS011;74803;44.756;19.218;2024-01-30T03:12:13;81.88;;;44.05;;
84577;SDS011;74803;44.756;19.218;2024-01-30T03:14:39;73.00;;;42.42;;
84577;SDS011;74803;44.756;19.218;2024-01-30T03:17:04;83.63;;;42.38;;
84577;SDS011;74803;44.756;19.218;2024-01-30T03:19:30;77.82;;;42.67;;
84577;SDS011;74803;44.756;19.218;2024-01-30T03:21:55;77.63;;;46.50;;
84577;SDS011;74803;44.756;19.218;2024-01-30T03:24:21;71.05;;;40.20;;
84577;SDS011;74803;44.756;19.218;2024-01-30T03:26:47;92.75;;;51.15;;
84577;SDS011;74803;44.756;19.218;2024-01-30T03:29:12;89.57;;;45.22;;
84577;SDS011;74803;44.756;19.218;2024-01-30T03:31:38;73.15;;;42.88;;
84577;SDS011;74803;44.756;19.218;2024-01-30T03:34:05;66.03;;;39.40;;
84577;SDS011;74803;44.756;19.218;2024-01-30T03:36:31;83.72;;;43.50;;
84577;SDS011;74803;44.756;19.218;2024-01-30T03:38:58;98.93;;;52.28;;
84577;SDS011;74803;44.756;19.218;2024-01-30T03:41:24;93.95;;;46.72;;
84577;SDS011;74803;44.756;19.218;2024-01-30T03:43:50;87.75;;;48.30;;
84577;SDS011;74803;44.756;19.218;2024-01-30T03:46:15;82.60;;;45.10;;
84577;SDS011;74803;44.756;19.218;2024-01-30T03:48:41;75.30;;;42.70;;
84577;SDS011;74803;44.756;19.218;2024-01-30T03:51:07;80.47;;;47.33;;
84577;SDS011;74803;44.756;19.218;2024-01-30T03:53:34;95.78;;;46.63;;
84577;SDS011;74803;44.756;19.218;2024-01-30T03:55:59;80.55;;;43.88;;
84577;SDS011;74803;44.756;19.218;2024-01-30T03:58:25;60.92;;;36.63;;
84577;SDS011;74803;44.756;19.218;2024-01-30T04:00:50;54.58;;;33.25;;
84577;SDS011;74803;44.756;19.218;2024-01-30T04:03:17;59.17;;;31.17;;
84577;SDS011;74803;44.756;19.218;2024-01-30T04:05:43;46.20;;;25.33;;
84577;SDS011;74803;44.756;19.218;2024-01-30T04:08:09;68.78;;;38.92;;
84577;SDS011;74803;44.756;19.218;2024-01-30T04:13:01;54.85;;;33.08;;
84577;SDS011;74803;44.756;19.218;2024-01-30T04:15:27;97.90;;;49.10;;
84577;SDS011;74803;44.756;19.218;2024-01-30T04:17:57;107.35;;;52.97;;
84577;SDS011;74803;44.756;19.218;2024-01-30T04:20:24;68.07;;;35.85;;
84577;SDS011;74803;44.756;19.218;2024-01-30T04:22:49;62.78;;;33.78;;
84577;SDS011;74803;44.756;19.218;2024-01-30T04:25:15;62.08;;;32.28;;
84577;SDS011;74803;44.756;19.218;2024-01-30T04:27:41;74.80;;;35.22;;
84577;SDS011;74803;44.756;19.218;2024-01-30T04:30:07;84.50;;;43.42;;
84577;SDS011;74803;44.756;19.218;2024-01-30T04:32:32;78.10;;;42.50;;
84577;SDS011;74803;44.756;19.218;2024-01-30T04:34:58;71.47;;;39.65;;
84577;SDS011;74803;44.756;19.218;2024-01-30T04:37:24;164.38;;;83.35;;
84577;SDS011;74803;44.756;19.218;2024-01-30T04:39:50;402.20;;;194.48;;
84577;SDS011;74803;44.756;19.218;2024-01-30T04:42:16;108.10;;;57.72;;
84577;SDS011;74803;44.756;19.218;2024-01-30T04:44:42;101.68;;;57.60;;
84577;SDS011;74803;44.756;19.218;2024-01-30T04:47:07;126.57;;;64.18;;
84577;SDS011;74803;44.756;19.218;2024-01-30T04:49:35;80.53;;;46.95;;
84577;SDS011;74803;44.756;19.218;2024-01-30T04:52:00;102.00;;;50.20;;
84577;SDS011;74803;44.756;19.218;2024-01-30T04:54:26;76.75;;;45.70;;
84577;SDS011;74803;44.756;19.218;2024-01-30T04:56:52;121.07;;;66.88;;
84577;SDS011;74803;44.756;19.218;2024-01-30T04:59:17;66.47;;;38.70;;
84577;SDS011;74803;44.756;19.218;2024-01-30T05:01:43;70.90;;;34.90;;
84577;SDS011;74803;44.756;19.218;2024-01-30T05:04:09;52.50;;;32.67;;
84577;SDS011;74803;44.756;19.218;2024-01-30T05:06:35;59.72;;;34.45;;
84577;SDS011;74803;44.756;19.218;2024-01-30T05:09:00;83.38;;;42.85;;
84577;SDS011;74803;44.756;19.218;2024-01-30T05:11:26;160.73;;;76.32;;
84577;SDS011;74803;44.756;19.218;2024-01-30T05:13:52;116.75;;;61.60;;
84577;SDS011;74803;44.756;19.218;2024-01-30T05:16:17;67.88;;;38.83;;
84577;SDS011;74803;44.756;19.218;2024-01-30T05:18:43;49.33;;;32.42;;
84577;SDS011;74803;44.756;19.218;2024-01-30T05:21:10;66.97;;;35.38;;
84577;SDS011;74803;44.756;19.218;2024-01-30T05:23:36;92.00;;;53.88;;
84577;SDS011;74803;44.756;19.218;2024-01-30T05:26:01;66.82;;;37.38;;
84577;SDS011;74803;44.756;19.218;2024-01-30T05:28:29;100.97;;;57.67;;
84577;SDS011;74803;44.756;19.218;2024-01-30T05:30:55;61.58;;;37.35;;
84577;SDS011;74803;44.756;19.218;2024-01-30T05:35:46;82.63;;;44.05;;
84577;SDS011;74803;44.756;19.218;2024-01-30T05:38:12;79.97;;;45.40;;
84577;SDS011;74803;44.756;19.218;2024-01-30T05:40:37;104.00;;;58.63;;
84577;SDS011;74803;44.756;19.218;2024-01-30T05:43:03;102.20;;;49.80;;
84577;SDS011;74803;44.756;19.218;2024-01-30T05:45:29;118.05;;;68.03;;
84577;SDS011;74803;44.756;19.218;2024-01-30T05:47:54;101.32;;;55.55;;
84577;SDS011;74803;44.756;19.218;2024-01-30T05:50:20;83.55;;;49.95;;
84577;SDS011;74803;44.756;19.218;2024-01-30T05:52:48;97.55;;;55.08;;
84577;SDS011;74803;44.756;19.218;2024-01-30T05:55:15;95.57;;;56.40;;
84577;SDS011;74803;44.756;19.218;2024-01-30T05:57:41;105.53;;;56.78;;
84577;SDS011;74803;44.756;19.218;2024-01-30T06:00:07;130.52;;;71.43;;
84577;SDS011;74803;44.756;19.218;2024-01-30T06:02:33;101.43;;;56.20;;
84577;SDS011;74803;44.756;19.218;2024-01-30T06:04:59;108.10;;;61.05;;
84577;SDS011;74803;44.756;19.218;2024-01-30T06:07:25;92.97;;;53.72;;
84577;SDS011;74803;44.756;19.218;2024-01-30T06:09:50;108.68;;;64.15;;
84577;SDS011;74803;44.756;19.218;2024-01-30T06:12:16;129.35;;;68.57;;
84577;SDS011;74803;44.756;19.218;2024-01-30T06:14:41;153.70;;;78.80;;
84577;SDS011;74803;44.756;19.218;2024-01-30T06:17:08;86.22;;;49.25;;
84577;SDS011;74803;44.756;19.218;2024-01-30T06:19:38;71.55;;;41.97;;
84577;SDS011;74803;44.756;19.218;2024-01-30T06:22:05;81.45;;;47.88;;
84577;SDS011;74803;44.756;19.218;2024-01-30T06:24:31;61.58;;;40.40;;
84577;SDS011;74803;44.756;19.218;2024-01-30T06:26:57;59.67;;;34.97;;
84577;SDS011;74803;44.756;19.218;2024-01-30T06:29:22;54.42;;;36.70;;
84577;SDS011;74803;44.756;19.218;2024-01-30T06:31:49;57.53;;;35.33;;
84577;SDS011;74803;44.756;19.218;2024-01-30T06:34:15;73.43;;;42.42;;
84577;SDS011;74803;44.756;19.218;2024-01-30T06:36:41;93.05;;;44.35;;
84577;SDS011;74803;44.756;19.218;2024-01-30T06:39:07;79.93;;;42.03;;
84577;SDS011;74803;44.756;19.218;2024-01-30T06:41:32;82.80;;;45.63;;
84577;SDS011;74803;44.756;19.218;2024-01-30T06:43:58;79.05;;;40.50;;
84577;SDS011;74803;44.756;19.218;2024-01-30T06:46:24;97.70;;;41.95;;
84577;SDS011;74803;44.756;19.218;2024-01-30T06:48:49;98.97;;;57.95;;
84577;SDS011;74803;44.756;19.218;2024-01-30T06:51:15;85.97;;;41.67;;
84577;SDS011;74803;44.756;19.218;2024-01-30T06:53:42;121.13;;;59.90;;
84577;SDS011;74803;44.756;19.218;2024-01-30T06:56:08;96.47;;;48.10;;
84577;SDS011;74803;44.756;19.218;2024-01-30T06:58:34;76.40;;;42.92;;
84577;SDS011;74803;44.756;19.218;2024-01-30T07:01:00;100.57;;;56.20;;
84577;SDS011;74803;44.756;19.218;2024-01-30T07:03:25;86.22;;;46.85;;
84577;SDS011;74803;44.756;19.218;2024-01-30T07:05:51;89.90;;;50.45;;
84577;SDS011;74803;44.756;19.218;2024-01-30T07:08:16;77.13;;;44.70;;
84577;SDS011;74803;44.756;19.218;2024-01-30T07:10:43;67.03;;;35.28;;
84577;SDS011;74803;44.756;19.218;2024-01-30T07:15:41;47.90;;;26.50;;
84577;SDS011;74803;44.756;19.218;2024-01-30T07:18:08;55.30;;;30.23;;
84577;SDS011;74803;44.756;19.218;2024-01-30T07:20:35;44.88;;;27.77;;
84577;SDS011;74803;44.756;19.218;2024-01-30T07:23:00;34.22;;;20.80;;
84577;SDS011;74803;44.756;19.218;2024-01-30T07:25:26;65.25;;;38.78;;
84577;SDS011;74803;44.756;19.218;2024-01-30T07:27:55;58.78;;;36.70;;
84577;SDS011;74803;44.756;19.218;2024-01-30T07:30:21;46.30;;;29.50;;
84577;SDS011;74803;44.756;19.218;2024-01-30T07:32:48;59.80;;;34.47;;
84577;SDS011;74803;44.756;19.218;2024-01-30T07:35:14;74.70;;;48.38;;
84577;SDS011;74803;44.756;19.218;2024-01-30T07:37:40;54.42;;;37.45;;
84577;SDS011;74803;44.756;19.218;2024-01-30T07:40:08;59.28;;;39.63;;
84577;SDS011;74803;44.756;19.218;2024-01-30T07:42:34;69.45;;;48.88;;
84577;SDS011;74803;44.756;19.218;2024-01-30T07:45:02;55.78;;;36.60;;
84577;SDS011;74803;44.756;19.218;2024-01-30T07:47:30;61.75;;;37.80;;
84577;SDS011;74803;44.756;19.218;2024-01-30T07:49:56;57.20;;;31.77;;
84577;SDS011;74803;44.756;19.218;2024-01-30T07:52:22;44.90;;;26.25;;
84577;SDS011;74803;44.756;19.218;2024-01-30T07:54:50;64.55;;;38.17;;
84577;SDS011;74803;44.756;19.218;2024-01-30T07:57:16;37.55;;;23.60;;
84577;SDS011;74803;44.756;19.218;2024-01-30T07:59:43;46.22;;;27.67;;
84577;SDS011;74803;44.756;19.218;2024-01-30T08:02:09;50.35;;;33.28;;
84577;SDS011;74803;44.756;19.218;2024-01-30T08:04:35;42.42;;;26.45;;
84577;SDS011;74803;44.756;19.218;2024-01-30T08:07:01;87.95;;;52.17;;
84577;SDS011;74803;44.756;19.218;2024-01-30T08:09:27;92.00;;;55.28;;
84577;SDS011;74803;44.756;19.218;2024-01-30T08:11:52;48.30;;;27.10;;
84577;SDS011;74803;44.756;19.218;2024-01-30T08:14:18;62.05;;;34.35;;
84577;SDS011;74803;44.756;19.218;2024-01-30T08:16:43;56.70;;;33.53;;
84577;SDS011;74803;44.756;19.218;2024-01-30T08:19:09;75.55;;;43.42;;
84577;SDS011;74803;44.756;19.218;2024-01-30T08:21:35;58.13;;;40.73;;
84577;SDS011;74803;44.756;19.218;2024-01-30T08:24:04;48.55;;;29.95;;
84577;SDS011;74803;44.756;19.218;2024-01-30T08:26:31;66.20;;;32.25;;
84577;SDS011;74803;44.756;19.218;2024-01-30T08:28:57;59.63;;;38.92;;
84577;SDS011;74803;44.756;19.218;2024-01-30T08:31:23;63.47;;;38.58;;
84577;SDS011;74803;44.756;19.218;2024-01-30T08:33:50;55.58;;;40.28;;
84577;SDS011;74803;44.756;19.218;2024-01-30T08:36:16;79.20;;;47.90;;
84577;SDS011;74803;44.756;19.218;2024-01-30T08:38:42;76.03;;;48.33;;
84577;SDS011;74803;44.756;19.218;2024-01-30T08:41:08;58.85;;;37.80;;
84577;SDS011;74803;44.756;19.218;2024-01-30T08:43:34;81.13;;;51.50;;
84577;SDS011;74803;44.756;19.218;2024-01-30T08:46:01;81.38;;;48.90;;
84577;SDS011;74803;44.756;19.218;2024-01-30T08:48:27;80.07;;;49.58;;
84577;SDS011;74803;44.756;19.218;2024-01-30T08:50:53;45.90;;;28.73;;
84577;SDS011;74803;44.756;19.218;2024-01-30T08:53:18;42.00;;;27.05;;
84577;SDS011;74803;44.756;19.218;2024-01-30T08:55:44;59.03;;;39.20;;
84577;SDS011;74803;44.756;19.218;2024-01-30T08:58:10;36.80;;;25.73;;
84577;SDS011;74803;44.756;19.218;2024-01-30T09:00:36;42.28;;;28.48;;
84577;SDS011;74803;44.756;19.218;2024-01-30T09:03:01;45.30;;;27.20;;
84577;SDS011;74803;44.756;19.218;2024-01-30T09:05:28;53.22;;;30.25;;
84577;SDS011;74803;44.756;19.218;2024-01-30T09:07:53;43.10;;;27.90;;
84577;SDS011;74803;44.756;19.218;2024-01-30T09:10:19;52.40;;;31.13;;
84577;SDS011;74803;44.756;19.218;2024-01-30T09:15:12;44.58;;;27.42;;
84577;SDS011;74803;44.756;19.218;2024-01-30T09:17:38;40.22;;;33.17;;
84577;SDS011;74803;44.756;19.218;2024-01-30T09:20:04;57.53;;;34.13;;
84577;SDS011;74803;44.756;19.218;2024-01-30T09:22:30;41.33;;;30.33;;
84577;SDS011;74803;44.756;19.218;2024-01-30T09:24:57;45.25;;;29.15;;
84577;SDS011;74803;44.756;19.218;2024-01-30T09:27:23;41.13;;;26.40;;
84577;SDS011;74803;44.756;19.218;2024-01-30T09:29:48;181.90;;;119.88;;
84577;SDS011;74803;44.756;19.218;2024-01-30T09:32:14;127.38;;;87.28;;
84577;SDS011;74803;44.756;19.218;2024-01-30T09:34:40;35.40;;;22.35;;
84577;SDS011;74803;44.756;19.218;2024-01-30T09:37:07;46.78;;;28.98;;
84577;SDS011;74803;44.756;19.218;2024-01-30T09:39:33;31.20;;;22.08;;
84577;SDS011;74803;44.756;19.218;2024-01-30T09:42:05;44.80;;;24.95;;
84577;SDS011;74803;44.756;19.218;2024-01-30T09:44:39;36.05;;;23.35;;
84577;SDS011;74803;44.756;19.218;2024-01-30T09:47:09;39.42;;;26.73;;
84577;SDS011;74803;44.756;19.218;2024-01-30T09:49:36;113.53;;;80.32;;
84577;SDS011;74803;44.756;19.218;2024-01-30T09:52:03;46.42;;;31.77;;
84577;SDS011;74803;44.756;19.218;2024-01-30T09:54:30;42.65;;;28.80;;
84577;SDS011;74803;44.756;19.218;2024-01-30T09:56:57;57.35;;;35.88;;
84577;SDS011;74803;44.756;19.218;2024-01-30T09:59:23;48.17;;;36.83;;
84577;SDS011;74803;44.756;19.218;2024-01-30T10:01:50;36.53;;;25.83;;
84577;SDS011;74803;44.756;19.218;2024-01-30T10:04:16;44.22;;;30.38;;
84577;SDS011;74803;44.756;19.218;2024-01-30T10:06:42;64.28;;;49.92;;
84577;SDS011;74803;44.756;19.218;2024-01-30T10:09:09;37.50;;;25.95;;
84577;SDS011;74803;44.756;19.218;2024-01-30T10:11:36;44.20;;;24.80;;
84577;SDS011;74803;44.756;19.218;2024-01-30T10:14:04;41.78;;;24.77;;
84577;SDS011;74803;44.756;19.218;2024-01-30T10:16:31;36.50;;;30.33;;
84577;SDS011;74803;44.756;19.218;2024-01-30T10:18:56;38.42;;;31.23;;
84577;SDS011;74803;44.756;19.218;2024-01-30T10:21:22;35.10;;;25.27;;
84577;SDS011;74803;44.756;19.218;2024-01-30T10:23:55;36.22;;;19.60;;
84577;SDS011;74803;44.756;19.218;2024-01-30T10:26:21;21.85;;;17.10;;
84577;SDS011;74803;44.756;19.218;2024-01-30T10:31:17;39.45;;;26.77;;
84577;SDS011;74803;44.756;19.218;2024-01-30T10:33:44;53.33;;;44.50;;
84577;SDS011;74803;44.756;19.218;2024-01-30T10:36:11;27.23;;;19.23;;
84577;SDS011;74803;44.756;19.218;2024-01-30T10:38:41;39.40;;;23.27;;
84577;SDS011;74803;44.756;19.218;2024-01-30T10:41:11;39.50;;;26.35;;
84577;SDS011;74803;44.756;19.218;2024-01-30T10:43:42;38.72;;;30.13;;
84577;SDS011;74803;44.756;19.218;2024-01-30T10:46:20;35.90;;;27.00;;
84577;SDS011;74803;44.756;19.218;2024-01-30T10:48:51;48.70;;;33.20;;
84577;SDS011;74803;44.756;19.218;2024-01-30T10:51:27;49.55;;;33.60;;
84577;SDS011;74803;44.756;19.218;2024-01-30T10:56:22;48.25;;;35.30;;
84577;SDS011;74803;44.756;19.218;2024-01-30T10:58:53;37.88;;;25.73;;
84577;SDS011;74803;44.756;19.218;2024-01-30T11:01:21;53.13;;;37.20;;
84577;SDS011;74803;44.756;19.218;2024-01-30T11:03:51;39.30;;;30.75;;
84577;SDS011;74803;44.756;19.218;2024-01-30T11:06:17;44.80;;;28.45;;
84577;SDS011;74803;44.756;19.218;2024-01-30T11:08:44;41.58;;;28.50;;
84577;SDS011;74803;44.756;19.218;2024-01-30T11:11:10;38.47;;;26.75;;
84577;SDS011;74803;44.756;19.218;2024-01-30T11:13:36;36.00;;;27.17;;
84577;SDS011;74803;44.756;19.218;2024-01-30T11:16:02;34.88;;;25.20;;
84577;SDS011;74803;44.756;19.218;2024-01-30T11:18:31;37.97;;;27.27;;
84577;SDS011;74803;44.756;19.218;2024-01-30T11:20:58;40.80;;;29.08;;
84577;SDS011;74803;44.756;19.218;2024-01-30T11:23:27;44.95;;;32.13;;
84577;SDS011;74803;44.756;19.218;2024-01-30T11:25:53;53.00;;;33.15;;
84577;SDS011;74803;44.756;19.218;2024-01-30T11:28:23;47.20;;;32.72;;
84577;SDS011;74803;44.756;19.218;2024-01-30T11:30:49;48.00;;;34.38;;
84577;SDS011;74803;44.756;19.218;2024-01-30T11:33:30;45.55;;;32.20;;
84577;SDS011;74803;44.756;19.218;2024-01-30T11:35:59;51.83;;;37.42;;
84577;SDS011;74803;44.756;19.218;2024-01-30T11:38:26;48.50;;;35.05;;
84577;SDS011;74803;44.756;19.218;2024-01-30T11:40:57;50.17;;;37.53;;
84577;SDS011;74803;44.756;19.218;2024-01-30T11:43:54;48.40;;;36.17;;
84577;SDS011;74803;44.756;19.218;2024-01-30T11:46:30;48.30;;;33.95;;
84577;SDS011;74803;44.756;19.218;2024-01-30T11:48:56;48.08;;;32.88;;
84577;SDS011;74803;44.756;19.218;2024-01-30T11:51:22;47.35;;;33.67;;
84577;SDS011;74803;44.756;19.218;2024-01-30T11:53:49;45.65;;;29.83;;
84577;SDS011;74803;44.756;19.218;2024-01-30T11:56:15;43.05;;;28.00;;
84577;SDS011;74803;44.756;19.218;2024-01-30T11:58:43;40.85;;;26.67;;
84577;SDS011;74803;44.756;19.218;2024-01-30T12:01:10;35.47;;;25.73;;
84577;SDS011;74803;44.756;19.218;2024-01-30T12:03:36;35.03;;;22.48;;
84577;SDS011;74803;44.756;19.218;2024-01-30T12:06:02;33.78;;;21.15;;
84577;SDS011;74803;44.756;19.218;2024-01-30T12:08:28;26.63;;;20.20;;
84577;SDS011;74803;44.756;19.218;2024-01-30T12:10:57;32.05;;;21.73;;
84577;SDS011;74803;44.756;19.218;2024-01-30T12:13:30;26.15;;;20.58;;
84577;SDS011;74803;44.756;19.218;2024-01-30T12:15:56;25.17;;;18.48;;
84577;SDS011;74803;44.756;19.218;2024-01-30T12:18:22;30.40;;;19.95;;
84577;SDS011;74803;44.756;19.218;2024-01-30T12:20:59;29.50;;;21.15;;
84577;SDS011;74803;44.756;19.218;2024-01-30T12:23:26;23.70;;;18.80;;
84577;SDS011;74803;44.756;19.218;2024-01-30T12:25:53;25.92;;;19.75;;
84577;SDS011;74803;44.756;19.218;2024-01-30T12:28:19;25.80;;;16.25;;
84577;SDS011;74803;44.756;19.218;2024-01-30T12:30:46;22.52;;;15.68;;
84577;SDS011;74803;44.756;19.218;2024-01-30T12:33:18;23.58;;;16.38;;
84577;SDS011;74803;44.756;19.218;2024-01-30T12:35:47;20.83;;;15.60;;
84577;SDS011;74803;44.756;19.218;2024-01-30T12:38:14;15.30;;;13.32;;
84577;SDS011;74803;44.756;19.218;2024-01-30T12:40:40;23.08;;;16.52;;
84577;SDS011;74803;44.756;19.218;2024-01-30T12:43:06;19.83;;;14.02;;
84577;SDS011;74803;44.756;19.218;2024-01-30T12:45:32;19.40;;;11.98;;
84577;SDS011;74803;44.756;19.218;2024-01-30T12:47:57;18.73;;;13.02;;
84577;SDS011;74803;44.756;19.218;2024-01-30T12:50:23;16.20;;;11.85;;
84577;SDS011;74803;44.756;19.218;2024-01-30T12:52:49;17.90;;;12.52;;
84577;SDS011;74803;44.756;19.218;2024-01-30T12:55:15;23.63;;;13.40;;
84577;SDS011;74803;44.756;19.218;2024-01-30T12:57:42;15.10;;;11.65;;
84577;SDS011;74803;44.756;19.218;2024-01-30T13:00:08;15.77;;;11.13;;
84577;SDS011;74803;44.756;19.218;2024-01-30T13:02:34;17.08;;;9.93;;
84577;SDS011;74803;44.756;19.218;2024-01-30T13:05:02;15.30;;;9.50;;
84577;SDS011;74803;44.756;19.218;2024-01-30T13:07:33;12.73;;;8.52;;
84577;SDS011;74803;44.756;19.218;2024-01-30T13:10:00;14.38;;;10.10;;
84577;SDS011;74803;44.756;19.218;2024-01-30T13:12:29;15.90;;;9.40;;
84577;SDS011;74803;44.756;19.218;2024-01-30T13:14:57;12.88;;;9.40;;
84577;SDS011;74803;44.756;19.218;2024-01-30T13:17:24;27.58;;;9.57;;
84577;SDS011;74803;44.756;19.218;2024-01-30T13:19:49;14.82;;;9.93;;
84577;SDS011;74803;44.756;19.218;2024-01-30T13:22:15;14.95;;;10.27;;
84577;SDS011;74803;44.756;19.218;2024-01-30T13:24:41;13.55;;;9.90;;
84577;SDS011;74803;44.756;19.218;2024-01-30T13:27:07;13.15;;;8.85;;
84577;SDS011;74803;44.756;19.218;2024-01-30T13:29:34;18.08;;;12.27;;
84577;SDS011;74803;44.756;19.218;2024-01-30T13:31:59;13.45;;;9.65;;
84577;SDS011;74803;44.756;19.218;2024-01-30T13:36:51;13.23;;;9.13;;
84577;SDS011;74803;44.756;19.218;2024-01-30T13:39:18;10.60;;;9.10;;
84577;SDS011;74803;44.756;19.218;2024-01-30T13:41:44;12.10;;;9.48;;
84577;SDS011;74803;44.756;19.218;2024-01-30T13:44:09;12.95;;;8.75;;
84577;SDS011;74803;44.756;19.218;2024-01-30T13:46:35;11.05;;;8.68;;
84577;SDS011;74803;44.756;19.218;2024-01-30T13:49:01;16.13;;;9.85;;
84577;SDS011;74803;44.756;19.218;2024-01-30T13:51:27;13.35;;;10.35;;
84577;SDS011;74803;44.756;19.218;2024-01-30T13:53:54;17.52;;;12.10;;
84577;SDS011;74803;44.756;19.218;2024-01-30T13:56:21;20.52;;;11.63;;
84577;SDS011;74803;44.756;19.218;2024-01-30T13:58:51;17.52;;;12.88;;
84577;SDS011;74803;44.756;19.218;2024-01-30T14:01:18;18.60;;;12.85;;
84577;SDS011;74803;44.756;19.218;2024-01-30T14:03:44;15.75;;;10.70;;
84577;SDS011;74803;44.756;19.218;2024-01-30T14:06:10;15.85;;;12.10;;
84577;SDS011;74803;44.756;19.218;2024-01-30T14:08:36;23.45;;;15.32;;
84577;SDS011;74803;44.756;19.218;2024-01-30T14:11:02;15.43;;;11.10;;
84577;SDS011;74803;44.756;19.218;2024-01-30T14:13:29;13.57;;;10.50;;
84577;SDS011;74803;44.756;19.218;2024-01-30T14:15:56;15.55;;;8.93;;
84577;SDS011;74803;44.756;19.218;2024-01-30T14:18:24;14.18;;;11.25;;
84577;SDS011;74803;44.756;19.218;2024-01-30T14:20:53;13.35;;;10.57;;
84577;SDS011;74803;44.756;19.218;2024-01-30T14:23:19;12.48;;;10.02;;
84577;SDS011;74803;44.756;19.218;2024-01-30T14:25:45;16.17;;;10.52;;
84577;SDS011;74803;44.756;19.218;2024-01-30T14:28:10;15.18;;;11.02;;